Time;durP1;ratioP1;P1;durP2;ratioP2;P2;SDS_P1;SDS_P2;PMS_P1;PMS_P2;Temp;Humidity;BMP_temperature;BMP_pressure;BME280_temperature;BME280_humidity;BME280_pressure;Samples;Min_cycle;Max_cycle;Signal;HPM_P1;HPM_P2
2023/12/14 00:01:13;;;;;;;27.83;13.80;;;4.00;99.90;;;;;;5101609;27;20514;-81
2023/12/14 00:03:49;;;;;;;37.85;14.63;;;4.00;99.90;;;;;;5095470;27;20043;-81
2023/12/14 00:06:15;;;;;;;32.03;14.35;;;;;;;;;;5116802;27;20030;-81
2023/12/14 00:08:41;;;;;;;36.40;15.25;;;;;;;;;;5102336;27;20075;-81
2023/12/14 00:11:08;;;;;;;26.10;13.05;;;;;;;;;;5100273;27;20076;-81
2023/12/14 00:13:34;;;;;;;28.02;12.73;;;;;;;;;;5117681;27;20042;-81
2023/12/14 00:16:01;;;;;;;28.17;12.98;;;;;;;;;;5118088;27;20046;-82
2023/12/14 00:18:27;;;;;;;35.95;14.40;;;;;;;;;;5102713;27;20046;-82
2023/12/14 00:20:53;;;;;;;31.35;14.23;;;;;;;;;;5102327;27;20054;-81
2023/12/14 00:23:20;;;;;;;40.25;14.57;;;;;;;;;;5100074;27;20049;-80
2023/12/14 00:25:46;;;;;;;35.17;14.07;;;;;;;;;;5117924;27;20516;-81
2023/12/14 00:28:12;;;;;;;37.88;14.80;;;;;;;;;;5119319;27;20037;-81
2023/12/14 00:30:39;;;;;;;24.38;13.15;;;;;;;;;;5117464;27;20166;-81
2023/12/14 00:33:05;;;;;;;39.25;13.75;;;;;;;;;;5106272;27;20142;-81
2023/12/14 00:35:31;;;;;;;35.58;14.70;;;;;;;;;;5126479;27;20046;-81
2023/12/14 00:37:57;;;;;;;42.10;13.85;;;;;;;;;;5126339;27;20051;-82
2023/12/14 00:40:24;;;;;;;25.67;12.65;;;;;;;;;;5125424;27;20142;-81
2023/12/14 00:42:51;;;;;;;29.88;14.38;;;;;;;;;;5120153;27;20578;-81
2023/12/14 00:45:17;;;;;;;25.27;13.30;;;;;;;;;;5118046;27;20043;-81
2023/12/14 00:47:43;;;;;;;43.20;15.38;;;;;;;;;;5107904;27;20535;-81
2023/12/14 00:50:09;;;;;;;27.92;12.25;;;;;;;;;;5122127;27;20437;-81
2023/12/14 00:52:36;;;;;;;36.58;14.48;;;;;;;;;;5108671;27;20050;-81
2023/12/14 00:55:02;;;;;;;25.52;13.55;;;4.50;99.90;;;;;;5129846;27;20030;-80
2023/12/14 00:57:28;;;;;;;31.23;13.35;;;;;;;;;;5134669;27;20106;-81
2023/12/14 00:59:54;;;;;;;49.08;14.65;;;;;;;;;;5134620;27;20038;-81
2023/12/14 01:02:21;;;;;;;35.30;14.07;;;;;;;;;;5137280;27;20043;-81
2023/12/14 01:04:47;;;;;;;31.20;14.00;;;;;;;;;;5134471;27;20045;-81
2023/12/14 01:07:13;;;;;;;25.45;12.75;;;;;;;;;;5129189;27;20066;-81
2023/12/14 01:09:39;;;;;;;28.80;12.07;;;3.70;99.90;;;;;;5127699;27;20883;-81
2023/12/14 01:12:05;;;;;;;38.17;12.95;;;3.80;99.90;;;;;;5127821;27;20133;-80
2023/12/14 01:14:31;;;;;;;37.28;12.70;;;;;;;;;;5110979;27;20166;-80
2023/12/14 01:16:58;;;;;;;30.98;12.20;;;;;;;;;;5127854;27;20043;-81
2023/12/14 01:19:25;;;;;;;41.47;13.30;;;;;;;;;;5127318;27;20157;-82
2023/12/14 01:21:51;;;;;;;33.42;11.88;;;;;;;;;;5145633;27;20153;-81
2023/12/14 01:24:17;;;;;;;21.42;10.18;;;;;;;;;;5127071;27;20039;-81
2023/12/14 01:26:43;;;;;;;27.15;12.10;;;;;;;;;;5126542;27;20495;-82
2023/12/14 01:29:11;;;;;;;32.50;12.95;;;;;;;;;;5125967;27;20039;-81
2023/12/14 01:31:37;;;;;;;24.08;10.57;;;;;;;;;;5125628;27;20092;-81
2023/12/14 01:34:03;;;;;;;28.42;11.32;;;;;;;;;;5125544;27;20094;-81
2023/12/14 01:36:29;;;;;;;34.35;12.60;;;;;;;;;;5126779;27;20454;-81
2023/12/14 01:38:55;;;;;;;36.38;13.10;;;;;;;;;;5118867;27;20064;-81
2023/12/14 01:41:22;;;;;;;28.38;11.80;;;;;;;;;;5125516;27;20081;-81
2023/12/14 01:43:48;;;;;;;31.08;12.27;;;;;;;;;;5125094;27;20046;-81
2023/12/14 01:46:16;;;;;;;23.92;10.50;;;;;;;;;;5125422;27;20038;-81
2023/12/14 01:48:42;;;;;;;32.88;12.40;;;;;;;;;;5124888;27;20042;-80
2023/12/14 01:51:08;;;;;;;23.38;10.13;;;;;;;;;;5124767;27;20046;-81
2023/12/14 01:53:34;;;;;;;27.67;11.10;;;;;;;;;;5124782;27;20638;-81
2023/12/14 01:56:03;;;;;;;38.97;13.98;;;3.60;99.90;;;;;;5124655;27;20131;-81
2023/12/14 01:58:35;;;;;;;38.45;12.48;;;3.60;99.90;;;;;;5107776;27;20610;-80
2023/12/14 02:01:10;;;;;;;26.75;11.70;;;3.50;99.90;;;;;;5107589;27;20046;-80
2023/12/14 02:03:37;;;;;;;24.45;9.65;;;;;;;;;;5107723;27;20093;-80
2023/12/14 02:06:08;;;;;;;28.80;11.52;;;3.50;99.90;;;;;;5124743;27;20901;-80
2023/12/14 02:08:34;;;;;;;22.02;9.65;;;;;;;;;;5107589;27;20694;-80
2023/12/14 02:11:03;;;;;;;32.42;11.05;;;3.60;99.90;;;;;;5124568;27;20039;-80
2023/12/14 02:13:30;;;;;;;26.42;11.13;;;;;;;;;;5107112;27;20042;-80
2023/12/14 02:15:55;;;;;;;30.48;11.55;;;3.00;99.90;;;;;;5126500;27;20499;-81
2023/12/14 02:18:21;;;;;;;33.60;11.90;;;;;;;;;;5111765;27;20054;-80
2023/12/14 02:20:48;;;;;;;40.28;11.90;;;;;;;;;;5128292;27;20182;-80
2023/12/14 02:23:14;;;;;;;31.08;11.10;;;;;;;;;;5128206;27;20046;-81
2023/12/14 02:25:40;;;;;;;27.52;10.68;;;;;;;;;;5128156;27;20132;-80
2023/12/14 02:28:06;;;;;;;29.38;10.95;;;;;;;;;;5128048;27;20179;-81
2023/12/14 02:30:33;;;;;;;28.25;9.98;;;;;;;;;;5128720;27;20074;-81
2023/12/14 02:32:59;;;;;;;26.02;10.88;;;;;;;;;;5128759;27;20035;-81
2023/12/14 02:35:25;;;;;;;26.10;10.05;;;;;;;;;;5128860;27;20069;-80
2023/12/14 02:37:51;;;;;;;30.75;10.82;;;;;;;;;;5128182;27;20583;-80
2023/12/14 02:40:17;;;;;;;27.45;11.80;;;;;;;;;;5128969;27;20050;-81
2023/12/14 02:42:44;;;;;;;32.05;10.88;;;;;;;;;;5128725;27;20042;-80
2023/12/14 02:45:10;;;;;;;56.42;13.20;;;;;;;;;;5128805;27;20043;-81
2023/12/14 02:47:36;;;;;;;27.73;11.05;;;;;;;;;;5127835;27;20078;-80
2023/12/14 02:50:03;;;;;;;34.92;12.10;;;;;;;;;;5120889;27;20043;-80
2023/12/14 02:52:29;;;;;;;35.63;13.57;;;;;;;;;;5127768;27;20039;-80
2023/12/14 02:54:55;;;;;;;38.55;13.43;;;;;;;;;;5128032;27;20043;-81
2023/12/14 02:57:21;;;;;;;38.88;13.70;;;;;;;;;;5127891;27;20038;-80
2023/12/14 02:59:47;;;;;;;32.03;12.85;;;;;;;;;;5128955;27;20046;-80
2023/12/14 03:02:13;;;;;;;49.10;15.75;;;3.50;99.90;;;;;;5129451;27;20042;-80
2023/12/14 03:04:39;;;;;;;46.10;16.50;;;;;;;;;;5111602;27;20045;-80
2023/12/14 03:07:06;;;;;;;69.00;17.90;;;;;;;;;;5128932;27;20062;-80
2023/12/14 03:09:32;;;;;;;41.38;14.70;;;;;;;;;;5127338;27;20043;-80
2023/12/14 03:11:59;;;;;;;31.25;13.38;;;;;;;;;;5127172;27;20046;-81
2023/12/14 03:14:25;;;;;;;59.75;16.77;;;;;;;;;;5127097;27;20125;-81
2023/12/14 03:16:54;;;;;;;60.92;17.75;;;;;;;;;;5127251;27;20039;-80
2023/12/14 03:19:21;;;;;;;58.75;15.80;;;;;;;;;;5127120;27;20544;-81
2023/12/14 03:21:47;;;;;;;57.28;18.00;;;;;;;;;;5127141;27;20507;-80
2023/12/14 03:24:13;;;;;;;58.85;18.15;;;;;;;;;;5127610;27;20049;-80
2023/12/14 03:26:39;;;;;;;57.58;17.23;;;;;;;;;;5126100;27;20115;-80
2023/12/14 03:29:05;;;;;;;77.00;17.85;;;;;;;;;;5126947;27;20043;-81
2023/12/14 03:31:31;;;;;;;53.20;16.60;;;;;;;;;;5127128;27;20058;-81
2023/12/14 03:33:57;;;;;;;42.38;16.45;;;;;;;;;;5127831;27;20053;-80
2023/12/14 03:36:26;;;;;;;47.20;15.38;;;;;;;;;;5127897;27;20047;-80
2023/12/14 03:38:52;;;;;;;34.67;13.55;;;;;;;;;;5127499;27;20072;-80
2023/12/14 03:41:18;;;;;;;69.30;16.88;;;;;;;;;;5127464;27;20500;-80
2023/12/14 03:43:45;;;;;;;37.60;14.27;;;;;;;;;;5122553;27;20038;-80
2023/12/14 03:46:11;;;;;;;36.35;14.82;;;;;;;;;;5127368;27;20038;-80
2023/12/14 03:48:37;;;;;;;47.80;15.13;;;;;;;;;;5098955;27;20039;-80
2023/12/14 03:51:04;;;;;;;55.97;17.92;;;3.60;99.90;;;;;;5109424;27;20038;-80
2023/12/14 03:53:30;;;;;;;41.03;16.58;;;;;;;;;;5110307;27;20503;-80
2023/12/14 03:55:58;;;;;;;51.92;16.00;;;;;;;;;;5127215;27;20429;-80
2023/12/14 03:58:24;;;;;;;59.80;15.50;;;;;;;;;;5126790;27;20053;-79
2023/12/14 04:00:50;;;;;;;42.97;14.35;;;;;;;;;;5126967;27;20047;-80
2023/12/14 04:03:16;;;;;;;49.67;15.38;;;;;;;;;;5126492;27;20095;-80
2023/12/14 04:05:44;;;;;;;47.20;14.85;;;;;;;;;;5126569;27;20149;-80
2023/12/14 04:08:10;;;;;;;43.95;14.40;;;;;;;;;;5126213;27;20451;-80
2023/12/14 04:10:36;;;;;;;40.92;14.25;;;;;;;;;;5126387;27;20129;-80
2023/12/14 04:13:02;;;;;;;54.17;16.55;;;;;;;;;;5126105;27;20046;-79
2023/12/14 04:15:28;;;;;;;59.80;16.77;;;;;;;;;;5126197;27;20057;-80
2023/12/14 04:17:55;;;;;;;42.05;14.15;;;;;;;;;;5126790;27;20843;-80
2023/12/14 04:20:20;;;;;;;63.17;17.15;;;3.70;99.90;;;;;;5127036;27;20046;-80
2023/12/14 04:22:48;;;;;;;49.30;14.63;;;;;;;;;;5127229;27;20054;-80
2023/12/14 04:25:14;;;;;;;64.32;17.15;;;;;;;;;;5126627;27;20072;-80
2023/12/14 04:27:40;;;;;;;44.80;14.70;;;;;;;;;;5126682;27;20145;-79
2023/12/14 04:30:10;;;;;;;45.25;15.80;;;3.00;99.90;;;;;;5126056;27;20046;-80
2023/12/14 04:32:36;;;;;;;43.50;14.75;;;;;;;;;;5126411;27;20250;-80
2023/12/14 04:35:03;;;;;;;37.45;13.98;;;;;;;;;;5126195;27;20153;-79
2023/12/14 04:37:30;;;;;;;34.55;12.75;;;;;;;;;;5126685;27;20049;-80
2023/12/14 04:39:56;;;;;;;31.33;13.23;;;;;;;;;;5126549;27;20043;-80
2023/12/14 04:42:22;;;;;;;41.08;14.88;;;;;;;;;;5126068;27;20046;-80
2023/12/14 04:44:51;;;;;;;39.83;14.20;;;;;;;;;;5125771;27;20800;-80
2023/12/14 04:47:17;;;;;;;43.05;14.23;;;;;;;;;;5126142;27;20482;-80
2023/12/14 04:49:43;;;;;;;44.45;16.30;;;;;;;;;;5125721;27;20138;-80
2023/12/14 04:52:10;;;;;;;38.60;14.13;;;;;;;;;;5125616;27;20792;-79
2023/12/14 04:54:38;;;;;;;44.50;14.57;;;;;;;;;;5125882;27;20126;-80
2023/12/14 04:57:04;;;;;;;39.03;16.00;;;3.50;99.90;;;;;;5125488;27;20838;-80
2023/12/14 04:59:30;;;;;;;45.20;15.48;;;;;;;;;;5126602;27;20042;-80
2023/12/14 05:01:56;;;;;;;52.83;15.68;;;;;;;;;;5130797;27;20062;-80
2023/12/14 05:04:22;;;;;;;72.57;17.90;;;3.20;99.90;;;;;;5132536;27;20074;-80
2023/12/14 05:06:48;;;;;;;29.48;12.75;;;;;;;;;;5131958;27;20070;-81
2023/12/14 05:09:14;;;;;;;33.92;14.10;;;;;;;;;;5132296;27;20097;-80
2023/12/14 05:11:41;;;;;;;37.10;15.10;;;;;;;;;;5127540;27;20074;-80
2023/12/14 05:14:07;;;;;;;49.53;15.52;;;;;;;;;;5126873;27;20057;-80
2023/12/14 05:16:34;;;;;;;33.83;15.73;;;3.40;99.90;;;;;;5126508;27;20057;-79
2023/12/14 05:19:00;;;;;;;39.00;15.10;;;;;;;;;;5126532;27;20046;-80
2023/12/14 05:21:26;;;;;;;32.78;13.80;;;;;;;;;;5126383;27;20053;-80
2023/12/14 05:23:53;;;;;;;36.10;14.52;;;;;;;;;;5126242;27;20042;-80
2023/12/14 05:26:19;;;;;;;41.88;14.88;;;;;;;;;;5126264;27;20034;-80
2023/12/14 05:28:46;;;;;;;55.63;16.95;;;;;;;;;;5126334;27;20058;-80
2023/12/14 05:31:12;;;;;;;38.17;15.85;;;;;;;;;;5126478;27;20042;-80
2023/12/14 05:33:38;;;;;;;30.73;14.10;;;;;;;;;;5125813;27;20103;-80
2023/12/14 05:36:08;;;;;;;41.90;16.20;;;;;;;;;;5125345;27;20046;-80
2023/12/14 05:38:35;;;;;;;36.20;14.27;;;;;;;;;;5125619;27;20376;-80
2023/12/14 05:41:01;;;;;;;37.40;15.77;;;;;;;;;;5125969;27;20122;-80
2023/12/14 05:43:28;;;;;;;46.15;17.17;;;;;;;;;;5125518;27;20046;-80
2023/12/14 05:45:54;;;;;;;51.30;16.10;;;;;;;;;;5125232;27;20141;-80
2023/12/14 05:48:20;;;;;;;42.90;16.70;;;;;;;;;;5124850;27;20043;-80
2023/12/14 05:50:46;;;;;;;43.20;16.85;;;;;;;;;;5124399;27;20042;-80
2023/12/14 05:53:12;;;;;;;61.17;18.88;;;;;;;;;;5124771;27;20714;-80
2023/12/14 05:55:40;;;;;;;53.83;18.25;;;;;;;;;;5124790;27;20049;-80
2023/12/14 05:58:06;;;;;;;43.78;15.77;;;;;;;;;;5124535;27;20209;-80
2023/12/14 06:00:35;;;;;;;57.40;17.70;;;3.50;99.90;;;;;;5123937;27;20094;-80
2023/12/14 06:03:02;;;;;;;37.47;15.68;;;;;;;;;;5124380;27;20219;-80
2023/12/14 06:05:28;;;;;;;35.05;15.30;;;;;;;;;;5124751;27;20039;-80
2023/12/14 06:07:54;;;;;;;47.67;17.52;;;;;;;;;;5124635;27;20073;-80
2023/12/14 06:10:21;;;;;;;69.53;17.92;;;;;;;;;;5124178;27;20035;-80
2023/12/14 06:12:47;;;;;;;38.30;15.82;;;;;;;;;;5124234;27;20046;-80
2023/12/14 06:15:13;;;;;;;46.28;16.98;;;;;;;;;;5124158;27;20042;-80
2023/12/14 06:17:42;;;;;;;38.50;16.15;;;;;;;;;;5124185;27;20503;-80
2023/12/14 06:20:11;;;;;;;43.70;17.42;;;;;;;;;;5123957;27;20049;-79
2023/12/14 06:22:37;;;;;;;62.75;17.70;;;;;;;;;;5124236;27;20038;-80
2023/12/14 06:25:03;;;;;;;52.88;17.63;;;3.50;99.90;;;;;;5124301;27;20052;-80
2023/12/14 06:27:30;;;;;;;41.72;16.48;;;;;;;;;;5100326;27;20068;-80
2023/12/14 06:29:56;;;;;;;31.52;13.45;;;;;;;;;;5116722;27;20061;-79
2023/12/14 06:32:22;;;;;;;25.30;14.38;;;;;;;;;;5123793;27;20038;-80
2023/12/14 06:34:48;;;;;;;35.67;16.25;;;;;;;;;;5123707;27;20042;-79
2023/12/14 06:37:14;;;;;;;34.72;15.70;;;;;;;;;;5124099;27;20070;-80
2023/12/14 06:39:43;;;;;;;41.92;17.30;;;3.50;99.90;;;;;;5123418;27;20789;-80
2023/12/14 06:42:10;;;;;;;37.58;15.43;;;;;;;;;;5104943;27;20119;-80
2023/12/14 06:44:36;;;;;;;71.55;18.55;;;;;;;;;;5139076;27;20074;-79
2023/12/14 06:47:02;;;;;;;41.08;16.05;;;;;;;;;;5120481;27;20043;-80
2023/12/14 06:49:28;;;;;;;54.65;18.35;;;;;;;;;;5113463;27;20079;-80
2023/12/14 06:51:54;;;;;;;66.20;17.23;;;;;;;;;;5123932;27;20649;-80
2023/12/14 06:54:21;;;;;;;34.83;16.05;;;;;;;;;;5124163;27;20041;-80
2023/12/14 06:56:47;;;;;;;50.83;18.10;;;;;;;;;;5124460;27;20046;-80
2023/12/14 06:59:13;;;;;;;77.40;19.13;;;;;;;;;;5121269;28;20491;-80
2023/12/14 07:01:40;;;;;;;52.42;18.05;;;;;;;;;;5108006;27;20030;-80
2023/12/14 07:04:07;;;;;;;68.05;19.13;;;;;;;;;;5128211;27;20153;-82
2023/12/14 07:06:35;;;;;;;58.90;18.55;;;;;;;;;;5128344;27;20443;-80
2023/12/14 07:09:01;;;;;;;64.45;18.98;;;;;;;;;;5127807;27;20040;-80
2023/12/14 07:11:27;;;;;;;100.43;21.17;;;3.60;99.90;;;;;;5127977;27;20071;-80
2023/12/14 07:13:54;;;;;;;56.00;17.05;;;;;;;;;;5123772;27;20146;-81
2023/12/14 07:16:20;;;;;;;44.97;16.85;;;;;;;;;;5126974;27;20597;-80
2023/12/14 07:18:46;;;;;;;61.55;17.40;;;;;;;;;;5115614;27;20043;-80
2023/12/14 07:21:15;;;;;;;43.05;16.92;;;;;;;;;;5126657;27;20552;-81
2023/12/14 07:23:41;;;;;;;45.55;18.60;;;;;;;;;;5127494;27;20041;-80
2023/12/14 07:26:07;;;;;;;65.85;19.83;;;;;;;;;;5127337;27;20153;-80
2023/12/14 07:28:34;;;;;;;71.03;19.80;;;;;;;;;;5103547;27;20095;-80
2023/12/14 07:31:00;;;;;;;58.28;18.25;;;;;;;;;;5127072;27;20547;-80
2023/12/14 07:33:29;;;;;;;82.32;19.40;;;3.70;99.90;;;;;;5126601;27;20585;-80
2023/12/14 07:35:57;;;;;;;52.22;16.52;;;3.60;99.90;;;;;;5110275;27;20043;-80
2023/12/14 07:38:23;;;;;;;68.88;19.52;;;;;;;;;;5125075;27;20126;-80
2023/12/14 07:40:50;;;;;;;62.05;18.27;;;;;;;;;;5124758;27;20042;-80
2023/12/14 07:43:16;;;;;;;75.72;20.10;;;;;;;;;;5101695;27;20138;-80
2023/12/14 07:45:43;;;;;;;91.78;20.92;;;;;;;;;;5124305;27;20039;-80
2023/12/14 07:48:09;;;;;;;81.68;23.15;;;;;;;;;;5100546;27;20070;-80
2023/12/14 07:50:35;;;;;;;77.35;20.27;;;;;;;;;;5123389;27;20030;-80
2023/12/14 07:53:01;;;;;;;114.03;21.00;;;;;;;;;;5127162;27;20148;-81
2023/12/14 07:55:27;;;;;;;85.40;21.65;;;;;;;;;;5123478;27;20050;-80
2023/12/14 07:57:53;;;;;;;91.75;26.83;;;;;;;;;;5088458;27;20047;-80
2023/12/14 08:00:19;;;;;;;79.03;23.08;;;;;;;;;;5125793;27;20043;-80
2023/12/14 08:02:45;;;;;;;78.18;22.80;;;;;;;;;;5126622;27;20085;-80
2023/12/14 08:05:12;;;;;;;67.65;22.30;;;;;;;;;;5125724;27;20867;-81
2023/12/14 08:07:38;;;;;;;67.18;20.13;;;;;;;;;;5126167;27;20070;-80
2023/12/14 08:10:04;;;;;;;63.85;19.55;;;;;;;;;;5119346;27;20049;-81
2023/12/14 08:12:30;;;;;;;100.07;21.92;;;;;;;;;;5104646;27;20039;-80
2023/12/14 08:14:56;;;;;;;64.93;19.98;;;;;;;;;;5125749;27;20764;-81
2023/12/14 08:17:22;;;;;;;71.35;19.35;;;;;;;;;;5126549;27;20043;-81
2023/12/14 08:19:49;;;;;;;140.90;22.05;;;;;;;;;;5125982;27;20053;-81
2023/12/14 08:22:15;;;;;;;107.53;21.65;;;;;;;;;;5124269;27;20074;-81
2023/12/14 08:24:41;;;;;;;105.80;21.38;;;;;;;;;;5123210;27;20042;-81
2023/12/14 08:27:07;;;;;;;119.18;19.80;;;;;;;;;;5105027;27;20548;-81
2023/12/14 08:29:34;;;;;;;91.07;22.00;;;;;;;;;;5144843;27;20502;-81
2023/12/14 08:32:00;;;;;;;65.65;19.20;;;;;;;;;;5121407;27;20039;-81
2023/12/14 08:34:27;;;;;;;98.00;23.38;;;;;;;;;;5126099;27;20187;-80
2023/12/14 08:36:53;;;;;;;107.22;22.88;;;;;;;;;;5126094;27;20053;-80
2023/12/14 08:39:19;;;;;;;109.05;22.95;;;;;;;;;;5126375;27;20094;-80
2023/12/14 08:41:48;;;;;;;100.53;26.15;;;4.00;99.90;;;;;;5125529;27;20839;-80
2023/12/14 08:44:17;;;;;;;119.72;23.38;;;3.90;99.90;;;;;;5108935;27;20074;-80
2023/12/14 08:46:46;;;;;;;108.30;23.63;;;3.90;99.90;;;;;;5125530;27;20043;-80
2023/12/14 08:49:13;;;;;;;109.20;23.98;;;;;;;;;;5108937;27;20049;-80
2023/12/14 08:51:39;;;;;;;107.32;25.48;;;3.90;99.90;;;;;;5123851;27;20505;-80
2023/12/14 08:54:06;;;;;;;78.97;22.67;;;;;;;;;;5120715;27;20917;-80
2023/12/14 08:56:32;;;;;;;94.25;23.48;;;;;;;;;;5126198;27;20097;-81
2023/12/14 08:58:59;;;;;;;105.28;23.95;;;;;;;;;;5122331;27;20064;-80
2023/12/14 09:01:25;;;;;;;120.13;22.55;;;;;;;;;;5114814;27;20126;-80
2023/12/14 09:03:51;;;;;;;101.55;23.23;;;3.90;99.90;;;;;;5132618;27;20043;-81
2023/12/14 09:06:18;;;;;;;98.22;23.02;;;;;;;;;;5128379;27;20035;-80
2023/12/14 09:08:45;;;;;;;107.20;26.17;;;4.00;99.90;;;;;;5108576;27;20467;-80
2023/12/14 09:11:11;;;;;;;83.78;23.45;;;5.40;99.90;;;;;;5109465;27;20121;-80
2023/12/14 09:13:37;;;;;;;109.25;24.23;;;;;;;;;;5109058;27;20050;-80
2023/12/14 09:16:04;;;;;;;93.72;23.98;;;;;;;;;;5125573;27;20550;-80
2023/12/14 09:18:30;;;;;;;119.80;25.83;;;;;;;;;;5123734;27;20076;-80
2023/12/14 09:20:56;;;;;;;118.40;27.80;;;;;;;;;;5125102;27;20437;-80
2023/12/14 09:23:22;;;;;;;114.60;25.60;;;;;;;;;;5125181;27;20460;-80
2023/12/14 09:25:49;;;;;;;107.90;25.92;;;;;;;;;;5123920;27;20843;-80
2023/12/14 09:28:15;;;;;;;64.28;21.13;;;;;;;;;;5124316;27;20071;-79
2023/12/14 09:30:42;;;;;;;102.68;25.15;;;;;;;;;;5124895;27;20046;-80
2023/12/14 09:33:08;;;;;;;90.43;26.95;;;;;;;;;;5125520;27;20042;-80
2023/12/14 09:35:36;;;;;;;100.43;27.38;;;4.30;99.90;;;;;;5124817;27;20046;-80
2023/12/14 09:38:03;;;;;;;99.57;28.67;;;4.30;99.90;;;;;;5107220;27;20050;-80
2023/12/14 09:40:29;;;;;;;93.53;27.05;;;;;;;;;;5105221;27;20043;-80
2023/12/14 09:42:56;;;;;;;95.32;24.25;;;;;;;;;;5120339;27;22017;-80
2023/12/14 09:45:30;;;;;;;95.70;25.98;;;4.50;99.90;;;;;;5100174;27;20058;-81
2023/12/14 09:48:00;;;;;;;93.47;25.65;;;4.50;99.90;;;;;;5102895;27;20406;-81
2023/12/14 09:50:27;;;;;;;109.45;27.17;;;;;;;;;;5105203;27;20038;-79
2023/12/14 09:52:53;;;;;;;121.18;28.67;;;;;;;;;;5114045;27;20515;-80
2023/12/14 09:55:19;;;;;;;103.78;24.00;;;;;;;;;;5123710;27;20086;-79
2023/12/14 09:57:45;;;;;;;83.90;25.20;;;;;;;;;;5125175;27;20070;-79
2023/12/14 10:00:13;;;;;;;93.13;24.23;;;4.60;99.90;;;;;;5120184;27;20038;-80
2023/12/14 10:02:40;;;;;;;86.63;24.00;;;;;;;;;;5106974;27;20531;-80
2023/12/14 10:05:10;;;;;;;86.38;23.20;;;;;;;;;;5116788;27;20566;-80
2023/12/14 10:07:43;;;;;;;93.72;25.55;;;;;;;;;;5119897;27;20046;-80
2023/12/14 10:10:14;;;;;;;90.43;24.00;;;4.70;99.90;;;;;;5101314;27;20149;-80
2023/12/14 10:12:54;;;;;;;133.43;26.83;;;4.20;99.90;;;;;;5100702;27;20461;-80
2023/12/14 10:15:20;;;;;;;59.50;20.10;;;;;;;;;;5119234;27;20037;-81
2023/12/14 10:17:53;;;;;;;94.72;24.25;;;;;;;;;;5124899;27;20146;-80
2023/12/14 10:20:23;;;;;;;106.32;24.65;;;;;;;;;;5124864;27;20042;-80
2023/12/14 10:22:50;;;;;;;68.03;23.30;;;;;;;;;;5123451;27;20034;-81
2023/12/14 10:25:16;;;;;;;81.18;24.08;;;;;;;;;;5124400;27;20034;-80
2023/12/14 10:27:43;;;;;;;78.50;22.02;;;;;;;;;;5121411;27;20039;-79
2023/12/14 10:30:12;;;;;;;78.00;24.13;;;;;;;;;;5124818;27;20172;-80
2023/12/14 10:32:40;;;;;;;70.65;23.23;;;;;;;;;;5124746;27;20031;-80
2023/12/14 10:35:07;;;;;;;86.05;26.33;;;;;;;;;;5124462;27;20071;-80
2023/12/14 10:37:38;;;;;;;62.70;20.92;;;4.90;99.90;;;;;;5126660;27;20577;-80
2023/12/14 10:40:10;;;;;;;77.15;22.98;;;5.00;99.90;;;;;;5128015;27;20076;-80
2023/12/14 10:42:37;;;;;;;80.50;23.10;;;4.90;99.90;;;;;;5111137;27;20960;-80
2023/12/14 10:45:04;;;;;;;85.68;23.75;;;;;;;;;;5111400;27;20883;-79
2023/12/14 10:47:30;;;;;;;73.70;22.38;;;;;;;;;;5130483;27;20486;-80
2023/12/14 10:49:59;;;;;;;64.03;22.30;;;5.00;99.90;;;;;;5124571;27;20035;-80
2023/12/14 10:52:26;;;;;;;71.63;22.45;;;;;;;;;;5114598;27;20444;-80
2023/12/14 10:54:58;;;;;;;82.18;22.00;;;5.60;99.90;;;;;;5131717;27;20039;-80
2023/12/14 10:57:24;;;;;;;70.95;19.95;;;;;;;;;;5120735;27;20047;-80
2023/12/14 10:59:50;;;;;;;62.40;21.13;;;;;;;;;;5133484;27;20045;-80
2023/12/14 11:02:17;;;;;;;70.75;21.67;;;5.00;99.90;;;;;;5131542;27;20055;-80
2023/12/14 11:04:59;;;;;;;85.45;24.10;;;;;;;;;;5112767;27;20111;-80
2023/12/14 11:07:47;;;;;;;59.40;20.15;;;5.10;99.90;;;;;;5128511;27;20072;-80
2023/12/14 11:10:13;;;;;;;68.65;22.20;;;5.00;99.90;;;;;;5129155;27;20894;-80
2023/12/14 11:12:51;;;;;;;68.80;21.30;;;;;;;;;;5128920;27;20064;-80
2023/12/14 11:15:19;;;;;;;73.22;23.65;;;5.20;99.90;;;;;;5122200;27;20054;-80
2023/12/14 11:18:11;;;;;;;93.35;22.98;;;5.20;99.90;;;;;;5126431;27;20403;-80
2023/12/14 11:20:46;;;;;;;70.78;25.52;;;5.20;99.90;;;;;;5129318;27;20039;-81
2023/12/14 11:23:13;;;;;;;67.15;24.25;;;;;;;;;;5107633;27;20038;-81
2023/12/14 11:25:40;;;;;;;60.05;21.98;;;5.10;99.90;;;;;;5127490;27;20532;-80
2023/12/14 11:28:09;;;;;;;69.57;23.80;;;5.20;99.90;;;;;;5110786;27;20041;-80
2023/12/14 11:30:36;;;;;;;80.03;22.40;;;;;;;;;;5109564;27;20134;-80
2023/12/14 11:33:03;;;;;;;88.15;25.00;;;;;;;;;;5126841;27;20659;-80
2023/12/14 11:35:29;;;;;;;63.30;22.95;;;;;;;;;;5118729;27;20039;-81
2023/12/14 11:38:01;;;;;;;85.30;25.48;;;5.20;99.90;;;;;;5126969;27;20085;-80
2023/12/14 11:40:28;;;;;;;;;;;5.30;99.90;;;;;;5105953;27;20076;-80
2023/12/14 11:43:08;;;;;;;63.97;21.00;;;5.20;99.90;;;;;;5109208;27;20451;-80
2023/12/14 11:45:38;;;;;;;57.92;22.33;;;;;;;;;;5126731;27;20363;-80
2023/12/14 11:48:10;;;;;;;70.28;24.85;;;5.30;99.90;;;;;;5124498;27;20045;-80
2023/12/14 11:50:36;;;;;;;56.47;21.50;;;;;;;;;;5125751;27;20106;-80
2023/12/14 11:53:06;;;;;;;79.85;23.77;;;;;;;;;;5126355;27;20038;-81
2023/12/14 11:55:33;;;;;;;53.75;19.42;;;;;;;;;;5126048;27;20046;-80
2023/12/14 11:57:59;;;;;;;62.08;21.52;;;;;;;;;;5126501;27;20568;-81
2023/12/14 12:00:32;;;;;;;53.30;18.98;;;;;;;;;;5121584;27;20098;-80
2023/12/14 12:03:21;;;;;;;61.83;21.85;;;5.40;99.90;;;;;;5120049;27;20092;-81
2023/12/14 12:05:49;;;;;;;63.80;20.38;;;5.30;99.90;;;;;;5121915;27;20051;-81
2023/12/14 12:08:18;;;;;;;54.42;20.80;;;5.40;99.90;;;;;;5122420;27;20772;-81
2023/12/14 12:10:46;;;;;;;55.00;21.30;;;;;;;;;;5109588;27;20118;-81
2023/12/14 12:13:20;;;;;;;44.00;17.65;;;;;;;;;;5126864;27;20449;-81
2023/12/14 12:15:46;;;;;;;52.72;18.27;;;;;;;;;;5124467;27;20147;-80
2023/12/14 12:18:13;;;;;;;55.95;18.63;;;;;;;;;;5126174;27;20649;-81
2023/12/14 12:20:40;;;;;;;51.33;19.35;;;;;;;;;;5123610;27;20067;-81
2023/12/14 12:23:06;;;;;;;48.25;19.35;;;;;;;;;;5125287;27;20625;-81
2023/12/14 12:25:32;;;;;;;44.78;17.52;;;;;;;;;;5141553;27;20042;-80
2023/12/14 12:27:59;;;;;;;53.38;19.15;;;5.20;99.90;;;;;;5123328;27;20074;-81
2023/12/14 12:30:26;;;;;;;41.60;17.85;;;;;;;;;;5108546;27;20046;-80
2023/12/14 12:32:52;;;;;;;44.80;17.70;;;;;;;;;;5123730;27;20113;-81
2023/12/14 12:35:19;;;;;;;48.63;19.08;;;5.20;99.90;;;;;;5123126;27;20039;-80
2023/12/14 12:37:45;;;;;;;56.22;19.08;;;;;;;;;;5124955;27;20095;-80
2023/12/14 12:40:11;;;;;;;50.20;19.38;;;5.10;99.90;;;;;;5123995;27;20039;-80
2023/12/14 12:42:38;;;;;;;55.85;19.70;;;;;;;;;;5108749;27;20121;-80
2023/12/14 12:45:04;;;;;;;50.97;18.85;;;;;;;;;;5125802;27;20122;-80
2023/12/14 12:47:31;;;;;;;45.20;17.65;;;;;;;;;;5126781;27;20388;-80
2023/12/14 12:49:57;;;;;;;49.05;20.10;;;;;;;;;;5126110;27;20043;-80
2023/12/14 12:52:23;;;;;;;56.03;21.15;;;;;;;;;;5126979;27;20145;-81
2023/12/14 12:54:52;;;;;;;47.05;19.55;;;;;;;;;;5089628;27;20043;-80
2023/12/14 12:57:18;;;;;;;62.08;20.42;;;;;;;;;;5106477;27;20118;-81
2023/12/14 12:59:44;;;;;;;54.72;22.25;;;;;;;;;;5106055;27;20034;-80
2023/12/14 13:02:10;;;;;;;51.70;20.55;;;;;;;;;;5125752;27;20045;-80
2023/12/14 13:04:37;;;;;;;45.35;19.02;;;;;;;;;;5125453;27;20325;-80
2023/12/14 13:07:04;;;;;;;42.28;17.98;;;5.20;99.90;;;;;;5126308;27;20030;-80
2023/12/14 13:09:30;;;;;;;51.45;21.38;;;5.30;99.90;;;;;;5108920;27;20035;-80
2023/12/14 13:11:56;;;;;;;50.03;19.80;;;;;;;;;;5126212;27;20039;-80
2023/12/14 13:14:22;;;;;;;42.53;18.73;;;;;;;;;;5125044;27;20121;-80
2023/12/14 13:16:49;;;;;;;41.90;17.70;;;;;;;;;;5117815;27;20043;-80
2023/12/14 13:19:16;;;;;;;44.25;17.65;;;;;;;;;;5125402;27;20127;-81
2023/12/14 13:21:42;;;;;;;42.35;16.52;;;;;;;;;;5124227;27;20054;-80
2023/12/14 13:24:08;;;;;;;47.03;18.13;;;;;;;;;;5124721;27;20042;-80
2023/12/14 13:26:34;;;;;;;40.95;16.90;;;;;;;;;;5126247;27;20042;-80
2023/12/14 13:29:00;;;;;;;48.30;19.95;;;;;;;;;;5126554;27;20724;-80
2023/12/14 13:31:26;;;;;;;49.10;18.13;;;;;;;;;;5125845;27;20088;-81
2023/12/14 13:33:53;;;;;;;47.10;19.52;;;;;;;;;;5126578;27;20434;-80
2023/12/14 13:36:19;;;;;;;38.90;17.77;;;;;;;;;;5126208;27;20767;-81
2023/12/14 13:38:45;;;;;;;45.92;19.13;;;;;;;;;;5125815;27;20042;-80
2023/12/14 13:41:12;;;;;;;49.63;18.85;;;;;;;;;;5121651;27;20043;-80
2023/12/14 13:43:38;;;;;;;50.38;19.65;;;;;;;;;;5124949;27;20548;-81
2023/12/14 13:46:04;;;;;;;46.72;17.38;;;;;;;;;;5124456;27;20073;-80
2023/12/14 13:48:30;;;;;;;43.35;16.60;;;;;;;;;;5120337;27;20041;-80
2023/12/14 13:50:57;;;;;;;39.42;16.13;;;;;;;;;;5123804;27;20118;-80
2023/12/14 13:53:23;;;;;;;50.90;17.80;;;;;;;;;;5087977;27;20047;-80
2023/12/14 13:55:49;;;;;;;47.70;17.17;;;;;;;;;;5106871;27;20038;-80